Mahan, West Virginia
Current Conditions -  °F | °C
As of 7:54 AM on Wednesday 26 Nov 2014 (Local Time) from KCRW Reporting Station
Light Snow Light Snow  
Wind Chill: 28°   Ceiling: 1600
Heat Index: 34°   Visibility: 3mi
Dew Point: 31°   Wind: 7mph
Humidity: 89%   Direction: 120°ESE
Pressure: 30.04"   Gusts: NA
Location:  38.174°N, 81.3902°W
Report Text: KCRW 261254Z 12006KT 3SM -SN BR SCT007 OVC016 01/M01 A3004 RMK AO2 RAE18 SLP177 P0004 T00111006
Loading
Personal Weather Stations






























Interactive Weather Map New forecast layout! Learn more

10-Day Weather Forecast

Advertisements
Track Severe Weather on mobile